• Join FlightAware (Why Join?)
  • Login
  • US Flag 
02:34AM EDT


 

Airport Tracker/Info


-or-


 

Live Flight TrackerFlight Track Log ✈ GJS3697 ✈ 13-May-2013 ✈ KMSY - KORD

Flight Track Log - Related Links

Times and Time Zones

All times are in EDT time to prevent confusion due to time zone crossing. See the GJS3697 flight status page for this flight to view local times or setup timezone preferences in your user account.

Time Position Orientation Groundspeed Altitude Reporting Facility
EDT Latitude Longitude Course Direction KTS MPH feet Rate Location/Type
07:02PM 30.0092 -90.2431 North 157 181 700  Level Houston Center
07:02PM 30.0361 -90.2347 15° North 162 186 1,900 1,920 Climbing Houston Center
07:03PM 30.0608 -90.2289 12° North 188 216 2,900 2,280 Climbing Houston Center
07:03PM 30.0878 -90.2206 15° North 214 246 4,000 1,800 Climbing Houston Center
07:04PM 30.1208 -90.2092 17° North 212 244 4,800 2,220 Climbing Houston Center
07:05PM 30.1906 -90.2089 360° North 247 284 7,700 2,880 Climbing Houston Center
07:06PM 30.2483 -90.2922 309° West 267 307 10,800 2,220 Climbing Houston Center
07:07PM 30.5377 -90.4495 North  Level FlightAware Approximate
07:07PM 30.2958 -90.3706 305° West 288 331 12,400  Level Houston Center
07:08PM 30.3669 -90.4461 317° Northwest 358 412 13,500 1,260 Climbing Houston Center
07:09PM 30.4697 -90.4831 343° North 384 442 15,100 1,560 Climbing Houston Center
07:10PM 30.5703 -90.5300 338° Northwest 387 445 16,800 1,260 Climbing Houston Center
07:11PM 30.6733 -90.5725 340° North 390 449 17,800 1,140 Climbing Houston Center
07:12PM 30.7858 -90.5897 353° North 414 476 19,200 1,200 Climbing Houston Center
07:13PM 30.9258 -90.5725 North 418 481 20,400 1,140 Climbing Houston Center
07:14PM 31.0467 -90.5581 North 431 496 21,600 1,080 Climbing Houston Center
07:15PM 31.1683 -90.5444 North 436 502 22,700 1,020 Climbing Houston Center
07:16PM 31.2908 -90.5300 North 439 505 23,800 1,020 Climbing Houston Center
07:17PM 31.4147 -90.5161 North 443 510 24,900 1,020 Climbing Houston Center
07:18PM 31.5394 -90.5022 North 449 517 25,900 960 Climbing Houston Center
07:19PM 31.6636 -90.4883 North 448 516 26,900 960 Climbing Houston Center
07:20PM 31.8136 -90.4703 North 450 518 28,000 900 Climbing Houston Center
07:21PM 31.9394 -90.4569 North 453 521 28,800 720 Climbing Houston Center
07:22PM 31.9622 -90.4528 North 443 510 29,000 780 Climbing Memphis Center
07:23PM 32.0917 -90.4383 North 448 516 29,800 840 Climbing Memphis Center
07:24PM 32.2167 -90.4236 North 448 516 30,700 900 Climbing Memphis Center
07:25PM 32.3419 -90.4089 North 448 516 31,700 960 Climbing Memphis Center
07:26PM 32.4653 -90.3967 North 443 510 32,700 840 Climbing Memphis Center
07:27PM 32.5883 -90.3819 North 443 510 33,400 660 Climbing Memphis Center
07:28PM 32.7117 -90.3672 North 443 510 34,100 720 Climbing Memphis Center
07:29PM 32.8347 -90.3522 North 443 510 34,900 780 Climbing Memphis Center
07:30PM 32.9558 -90.3400 North 443 510 35,700 720 Climbing Memphis Center
07:31PM 33.0769 -90.3250 North 443 510 36,400 600 Climbing Memphis Center
07:32PM 33.1958 -90.3100 North 443 510 36,900 240 Climbing Memphis Center
07:33PM 33.3192 -90.2950 North 438 504 37,000  Climbing Memphis Center
07:34PM 33.4422 -90.2825 North 438 504 37,000  Level Memphis Center
07:35PM 33.5653 -90.2600 North 443 510 37,000  Level Memphis Center
07:36PM 33.6883 -90.2372 North 443 510 37,000  Level Memphis Center
07:37PM 33.8094 -90.2147 North 443 510 37,000  Level Memphis Center
07:38PM 33.9431 -90.1894 North 443 510 37,000  Level Memphis Center
07:39PM 34.0661 -90.1667 North 448 516 37,000  Level Memphis Center
07:40PM 34.1872 -90.1436 North 448 516 37,000 -240 Level Memphis Center
07:41PM 34.3081 -90.1208 North 448 516 36,600 -540 Descending Memphis Center
07:42PM 34.4311 -90.0978 North 448 516 36,000 -300 Descending Memphis Center
07:43PM 34.5522 -90.0772 North 441 507 36,000  Level Memphis Center
07:44PM 34.6586 -90.0567 North 441 507 36,000  Level Memphis Center
07:45PM 34.7794 -90.0361 North 435 501 36,000  Level Memphis Center
07:46PM 34.9006 -90.0128 North 435 501 36,000  Level Memphis Center
07:47PM 35.0319 -89.9869 North 435 501 36,000  Level Memphis Center
07:48PM 35.1508 -89.9964 356° North 425 489 36,000  Level Memphis Center
07:49PM 35.2697 -90.0061 356° North 420 483 36,000  Level Memphis Center
07:50PM 35.3864 -90.0158 356° North 420 483 36,000  Level Memphis Center
07:51PM 35.5033 -90.0281 355° North 425 489 36,000  Level Memphis Center
07:52PM 35.6244 -90.0378 356° North 425 489 36,000  Level Memphis Center
07:53PM 35.7225 -90.0528 353° North 411 473 36,000  Level Memphis Center
07:54PM 35.8350 -90.0600 357° North 405 466 36,000 -300 Level Memphis Center
07:55PM 35.9539 -90.0725 355° North 410 472 35,400 -960 Descending Memphis Center
07:56PM 36.0728 -90.0847 355° North 423 487 34,100 -720 Descending Memphis Center
07:57PM 36.1939 -90.0972 355° North 428 493 34,000 -60 Descending Memphis Center
07:58PM 36.3189 -90.1072 356° North 434 499 34,000  Level Memphis Center
07:59PM 36.4522 -90.1350 350° North 440 506 34,000  Level Memphis Center
08:00PM 36.5692 -90.1786 343° North 445 512 34,000  Level Memphis Center
08:01PM 36.6900 -90.2225 344° North 445 512 34,000  Level Memphis Center
08:02PM 36.8069 -90.2636 344° North 440 506 34,000  Level Memphis Center
08:03PM 36.9897 -90.3269 345° North 436 502 34,000  Level Kansas City Center
08:04PM 37.1056 -90.3706 343° North 434 499 34,000  Level Kansas City Center
08:05PM 37.2214 -90.4122 344° North 432 497 34,000  Level Kansas City Center
08:06PM 37.3400 -90.4575 343° North 432 497 34,000  Level Kansas City Center
08:07PM 37.4553 -90.4994 344° North 431 496 34,000  Level Kansas City Center
08:08PM 37.5706 -90.5431 343° North 431 496 34,000  Level Kansas City Center
08:09PM 37.7083 -90.5919 344° North 429 494 34,000  Level Kansas City Center
08:10PM 37.8244 -90.6372 343° North 434 499 34,000  Level Kansas City Center
08:12PM 37.9392 -90.6847 342° North 434 499 34,000  Level Kansas City Center
08:13PM 38.0147 -90.8083 308° West 453 521 34,000  Level Kansas City Center
08:14PM 38.0306 -90.9703 277° West 467 537 34,000  Level Kansas City Center
08:15PM 38.0486 -91.1506 277° West 460 529 34,000  Level Kansas City Center
08:16PM 38.0683 -91.3031 279° West 444 511 34,000 240 Level Kansas City Center
08:17PM 38.1428 -91.4181 309° West 438 504 34,500 480 Climbing Kansas City Center
08:18PM 38.2503 -91.4578 344° North 420 483 35,000 240 Climbing Kansas City Center
08:19PM 38.3525 -91.4103 20° North 404 465 35,000  Level Kansas City Center
08:20PM 38.4392 -91.2956 46° Northeast 412 474 35,000  Level Kansas City Center
08:21PM 38.5189 -91.1919 45° Northeast 410 472 35,000  Level Kansas City Center
08:22PM 38.6142 -91.1164 32° Northeast 405 466 35,000  Level Kansas City Center
08:23PM 38.7153 -91.0578 24° Northeast 399 459 35,000  Level Kansas City Center
08:24PM 38.8178 -90.9994 24° Northeast 399 459 35,000  Level Kansas City Center
08:25PM 38.9211 -90.9400 24° Northeast 403 464 35,000  Level Kansas City Center
08:26PM 39.0442 -90.8664 25° Northeast 403 464 35,000 -360 Level Kansas City Center
08:27PM 39.1483 -90.8061 24° Northeast 406 467 34,300 -720 Descending Kansas City Center
08:28PM 39.2564 -90.7431 24° Northeast 418 481 33,600 -660 Descending Kansas City Center
08:29PM 39.3647 -90.6772 25° Northeast 426 490 33,000 -300 Descending Kansas City Center
08:30PM 39.4728 -90.6142 24° Northeast 425 489 33,000  Level Kansas City Center
08:31PM 39.5764 -90.5544 24° Northeast 411 473 33,000  Level Kansas City Center
08:32PM 39.6769 -90.4922 25° Northeast 402 463 33,000  Level Kansas City Center
08:33PM 39.7956 -90.4217 25° Northeast 399 459 33,000  Level Kansas City Center
08:34PM 39.8983 -90.3594 25° Northeast 403 464 33,000  Level Kansas City Center
08:35PM 39.9397 -90.3361 23° Northeast 407 468 33,000  Level Chicago Center
08:36PM 40.0625 -90.2611 25° Northeast 408 470 33,000  Level Chicago Center
08:37PM 40.1650 -90.2000 24° Northeast 405 466 33,000  Level Chicago Center
08:38PM 40.2661 -90.1372 25° Northeast 403 464 33,000 -540 Level Chicago Center
08:39PM 40.3656 -90.0775 25° Northeast 397 457 32,000 -1,020 Descending Chicago Center
08:40PM 40.4544 -90.0233 25° Northeast 364 419 30,900 -1,740 Descending Chicago Center
08:41PM 40.5631 -89.9514 27° Northeast 361 415 28,500 -2,040 Descending Chicago Center
08:42PM 40.6681 -89.8942 22° Northeast 396 456 26,700 -1,620 Descending Chicago Center
08:43PM 40.7636 -89.8339 26° Northeast 389 448 25,200 -1,260 Descending Chicago Center
08:44PM 40.8628 -89.7739 25° Northeast 389 448 24,100 -600 Descending Chicago Center
08:45PM 40.9622 -89.7125 25° Northeast 395 455 24,000 -60 Descending Chicago Center
08:46PM 41.0758 -89.6422 25° Northeast 405 466 24,000 -540 Level Chicago Center
08:47PM 41.1700 -89.5644 32° Northeast 405 466 23,000 -1,260 Descending Chicago Center
08:48PM 41.2269 -89.4269 61° Northeast 429 494 21,500 -1,560 Descending Chicago Center
08:49PM 41.2828 -89.2911 61° Northeast 421 484 19,800 -1,860 Descending Chicago Center
08:50PM 41.3372 -89.1503 63° Northeast 408 470 17,700 -2,040 Descending Chicago Center
08:51PM 41.3867 -89.0258 62° Northeast 387 445 15,600 -2,100 Descending Chicago Center
08:52PM 41.4433 -88.8833 62° Northeast 368 423 13,400 -1,980 Descending Chicago Center
08:53PM 41.4897 -88.7653 62° Northeast 362 417 11,600 -1,200 Descending Chicago Center
08:54PM 41.5306 -88.6619 62° Northeast 323 372 11,000 -300 Descending Chicago Center
08:55PM 41.5708 -88.5650 61° Northeast 304 350 11,000 -540 Level Chicago Center
08:56PM 41.6222 -88.4853 49° Northeast 289 333 10,000 -1,140 Descending Chicago Center
08:57PM 41.6725 -88.4069 49° Northeast 280 322 8,700 -1,440 Descending Chicago Center
08:59PM 41.7417 -88.3650 24° Northeast 245 282 7,100 -840 Descending Chicago Center
09:00PM 41.8078 -88.3586 North 241 277 7,000 -720 Descending Chicago Center
09:01PM 41.8753 -88.3425 10° North 247 284 5,700 -1,020 Descending Chicago Center
09:02PM 41.9392 -88.3300 North 235 270 5,000 -480 Descending Chicago Center
09:03PM 41.9714 -88.2703 54° Northeast 225 259 4,800 -360 Descending Chicago Center
09:04PM 41.9706 -88.1917 91° East 216 249 4,300 -720 Descending Chicago Center
09:05PM 41.9667 -88.1000 93° East 201 231 3,300 -1,020 Descending Chicago TRACON